Terminal Aerodrome Forecast
Issued by NWS Melbourne, FL

Home | Current Version | Previous Version | Text Only | Print | Product List | Glossary On
Versions: 1 2 3 4 5 6 7 8 9 10 11 12 13 14 15 16
000
FTUS42 KMLB 170500 RRA
TAFMLB
TAF
KMLB 170541Z 1706/1806 03012G18KT P6SM BKN035 BKN050
     FM171500 05015G25KT P6SM VCSH BKN035 BKN050
     FM172300 07013KT P6SM VCSH BKN025 OVC040=

USA.gov is the U.S. government's official web portal to all federal, state and local government web resources and services.